Time;durP1;ratioP1;P1;durP2;ratioP2;P2;SDS_P1;SDS_P2;PMS_P1;PMS_P2;Temp;Humidity;BMP_temperature;BMP_pressure;BME280_temperature;BME280_humidity;BME280_pressure;Samples;Min_cycle;Max_cycle;Signal;HPM_P1;HPM_P2
2022/09/15 00:00:32;;;;;;;;;;;21.40;42.50;;;;;;453085;263;1215;-52
2022/09/15 00:02:33;;;;;;;;;;;21.40;42.60;;;;;;452659;263;2286;-51
2022/09/15 00:04:35;;;;;;;;;;;21.40;42.60;;;;;;452936;263;1344;-52
2022/09/15 00:06:36;;;;;;;;;;;21.50;42.60;;;;;;452904;263;1232;-51
2022/09/15 00:08:37;;;;;;;;;;;21.50;42.50;;;;;;453049;263;1301;-52
2022/09/15 00:10:38;;;;;;;;;;;21.50;42.40;;;;;;453026;263;1292;-52
2022/09/15 00:12:40;;;;;;;;;;;21.50;42.50;;;;;;452616;263;1305;-52
2022/09/15 00:14:41;;;;;;;;;;;21.50;42.50;;;;;;452454;263;1601;-52
2022/09/15 00:16:42;;;;;;;;;;;21.50;42.50;;;;;;453019;263;1272;-51
2022/09/15 00:18:44;;;;;;;;;;;21.50;42.40;;;;;;452691;263;1403;-51
2022/09/15 00:20:45;;;;;;;;;;;21.50;42.40;;;;;;452542;263;1384;-52
2022/09/15 00:22:46;;;;;;;;;;;21.50;42.40;;;;;;453167;262;2209;-52
2022/09/15 00:24:48;;;;;;;;;;;21.50;42.40;;;;;;453014;263;1355;-52
2022/09/15 00:26:50;;;;;;;;;;;21.50;42.40;;;;;;453058;263;1332;-51
2022/09/15 00:28:51;;;;;;;;;;;21.40;42.40;;;;;;453071;263;1253;-51
2022/09/15 00:30:52;;;;;;;;;;;21.50;42.50;;;;;;452670;263;1305;-51
2022/09/15 00:32:54;;;;;;;;;;;21.50;42.50;;;;;;452904;263;1254;-52
2022/09/15 00:34:55;;;;;;;;;;;21.50;42.50;;;;;;453073;263;1291;-51
2022/09/15 00:36:56;;;;;;;;;;;21.50;42.60;;;;;;453180;262;1376;-52
2022/09/15 00:38:58;;;;;;;;;;;21.50;42.50;;;;;;453072;263;1239;-51
2022/09/15 00:40:59;;;;;;;;;;;21.50;42.50;;;;;;453061;263;1295;-52
2022/09/15 00:43:01;;;;;;;;;;;21.50;42.50;;;;;;453103;262;2186;-52
2022/09/15 00:45:02;;;;;;;;;;;21.40;42.40;;;;;;453060;263;1235;-51
2022/09/15 00:47:03;;;;;;;;;;;21.50;42.40;;;;;;452614;263;1276;-52
2022/09/15 00:49:04;;;;;;;;;;;21.50;42.40;;;;;;452782;263;1246;-52
2022/09/15 00:51:06;;;;;;;;;;;21.50;42.40;;;;;;452735;263;1220;-51
2022/09/15 00:53:07;;;;;;;;;;;21.50;42.50;;;;;;453100;263;1247;-51
2022/09/15 00:55:09;;;;;;;;;;;21.40;42.40;;;;;;453044;263;1348;-51
2022/09/15 00:57:10;;;;;;;;;;;21.50;42.40;;;;;;452684;262;1263;-51
2022/09/15 00:59:11;;;;;;;;;;;21.50;42.40;;;;;;452889;263;1265;-52
2022/09/15 01:01:13;;;;;;;;;;;21.40;42.30;;;;;;453060;263;1261;-51
2022/09/15 01:03:14;;;;;;;;;;;21.50;42.40;;;;;;452947;263;2486;-52
2022/09/15 01:05:16;;;;;;;;;;;21.50;42.30;;;;;;453022;263;1344;-51
2022/09/15 01:07:17;;;;;;;;;;;21.50;42.30;;;;;;452827;263;1253;-51
2022/09/15 01:09:18;;;;;;;;;;;21.50;42.30;;;;;;453029;263;1273;-51
2022/09/15 01:11:19;;;;;;;;;;;21.50;42.30;;;;;;452790;263;1295;-52
2022/09/15 01:13:21;;;;;;;;;;;21.50;42.40;;;;;;452802;263;1422;-52
2022/09/15 01:15:22;;;;;;;;;;;21.50;42.30;;;;;;453034;263;1387;-51
2022/09/15 01:17:23;;;;;;;;;;;21.50;42.30;;;;;;453086;263;1136;-51
2022/09/15 01:19:25;;;;;;;;;;;21.50;42.30;;;;;;452783;263;1249;-51
2022/09/15 01:21:26;;;;;;;;;;;21.40;42.30;;;;;;453025;263;1358;-51
2022/09/15 01:23:27;;;;;;;;;;;21.40;42.30;;;;;;452618;263;2221;-51
2022/09/15 01:25:29;;;;;;;;;;;21.40;42.30;;;;;;453043;263;1200;-52
2022/09/15 01:27:30;;;;;;;;;;;21.40;42.30;;;;;;453076;263;1300;-51
2022/09/15 01:29:31;;;;;;;;;;;21.40;42.20;;;;;;453041;263;1234;-51
2022/09/15 01:31:33;;;;;;;;;;;21.50;42.30;;;;;;452817;263;1306;-52
2022/09/15 01:33:34;;;;;;;;;;;21.50;42.20;;;;;;453008;262;1237;-52
2022/09/15 01:35:35;;;;;;;;;;;21.40;42.20;;;;;;453043;263;1311;-52
2022/09/15 01:37:37;;;;;;;;;;;21.50;42.20;;;;;;453046;263;1220;-52
2022/09/15 01:39:38;;;;;;;;;;;21.50;42.10;;;;;;453049;263;1358;-52
2022/09/15 01:41:39;;;;;;;;;;;21.50;42.20;;;;;;452899;263;1311;-51
2022/09/15 01:43:41;;;;;;;;;;;21.50;42.20;;;;;;453080;263;2221;-52
2022/09/15 01:45:42;;;;;;;;;;;21.40;42.20;;;;;;452833;263;1224;-52
2022/09/15 01:47:43;;;;;;;;;;;21.40;42.20;;;;;;452694;263;1584;-52
2022/09/15 01:49:45;;;;;;;;;;;21.40;42.10;;;;;;452819;263;1249;-52
2022/09/15 01:51:46;;;;;;;;;;;21.50;42.10;;;;;;453001;263;1244;-51
2022/09/15 01:53:47;;;;;;;;;;;21.50;42.20;;;;;;453088;263;1244;-52
2022/09/15 01:55:48;;;;;;;;;;;21.50;42.10;;;;;;453050;263;1220;-52
2022/09/15 01:57:50;;;;;;;;;;;21.50;42.10;;;;;;452784;263;1275;-52
2022/09/15 01:59:51;;;;;;;;;;;21.50;42.00;;;;;;453074;263;1277;-52
2022/09/15 02:01:53;;;;;;;;;;;21.50;42.00;;;;;;452718;262;1212;-52
2022/09/15 02:03:54;;;;;;;;;;;21.40;42.20;;;;;;453043;263;2224;-51
2022/09/15 02:05:57;;;;;;;;;;;21.40;42.20;;;;;;453086;263;1219;-51
2022/09/15 02:07:58;;;;;;;;;;;21.40;42.30;;;;;;452664;263;2220;-52
2022/09/15 02:09:59;;;;;;;;;;;21.40;42.30;;;;;;453116;262;1095;-51
2022/09/15 02:12:00;;;;;;;;;;;21.40;42.30;;;;;;453150;262;1134;-52
2022/09/15 02:14:02;;;;;;;;;;;21.40;42.30;;;;;;453109;263;1094;-51
2022/09/15 02:16:03;;;;;;;;;;;21.40;42.20;;;;;;453103;263;1328;-51
2022/09/15 02:18:05;;;;;;;;;;;21.40;42.20;;;;;;452718;263;1607;-52
2022/09/15 02:20:07;;;;;;;;;;;21.50;42.20;;;;;;452868;263;1287;-51
2022/09/15 02:22:09;;;;;;;;;;;21.40;42.10;;;;;;452764;263;2372;-51
2022/09/15 02:24:09;;;;;;;;;;;21.40;42.20;;;;;;452966;263;2166;-52
2022/09/15 02:26:10;;;;;;;;;;;21.40;42.10;;;;;;452682;263;1461;-52
2022/09/15 02:28:11;;;;;;;;;;;21.40;42.10;;;;;;453094;263;1181;-52
2022/09/15 02:30:13;;;;;;;;;;;21.40;42.10;;;;;;453090;263;1306;-52
2022/09/15 02:32:14;;;;;;;;;;;21.50;42.10;;;;;;452856;263;1291;-52
2022/09/15 02:34:15;;;;;;;;;;;21.50;42.20;;;;;;452981;263;1257;-51
2022/09/15 02:36:18;;;;;;;;;;;21.40;42.10;;;;;;452641;263;1308;-52
2022/09/15 02:38:18;;;;;;;;;;;21.40;42.10;;;;;;452785;263;1938;-52
2022/09/15 02:40:19;;;;;;;;;;;21.40;42.10;;;;;;452980;263;1198;-52
2022/09/15 02:42:21;;;;;;;;;;;21.40;42.10;;;;;;453067;263;1295;-51
2022/09/15 02:44:22;;;;;;;;;;;21.40;42.00;;;;;;452893;263;2181;-52
2022/09/15 02:46:23;;;;;;;;;;;21.40;42.00;;;;;;453046;263;1261;-51
2022/09/15 02:48:24;;;;;;;;;;;21.40;42.10;;;;;;452679;263;1217;-51
2022/09/15 02:50:26;;;;;;;;;;;21.40;42.00;;;;;;452802;263;1229;-51
2022/09/15 02:52:27;;;;;;;;;;;21.40;42.00;;;;;;453090;263;1375;-51
2022/09/15 02:54:28;;;;;;;;;;;21.40;42.00;;;;;;452671;263;1330;-52
2022/09/15 02:56:30;;;;;;;;;;;21.40;42.00;;;;;;453078;263;1443;-52
2022/09/15 02:58:31;;;;;;;;;;;21.40;41.90;;;;;;452721;263;1335;-52
2022/09/15 03:00:32;;;;;;;;;;;21.40;42.00;;;;;;453052;263;1211;-51
2022/09/15 03:02:34;;;;;;;;;;;21.40;41.90;;;;;;452855;263;1261;-52
2022/09/15 03:04:35;;;;;;;;;;;21.40;41.90;;;;;;453075;263;2212;-52
2022/09/15 03:06:36;;;;;;;;;;;21.50;42.00;;;;;;452646;263;1254;-52
2022/09/15 03:08:38;;;;;;;;;;;21.50;42.00;;;;;;453080;263;1264;-52
2022/09/15 03:10:39;;;;;;;;;;;21.40;41.90;;;;;;453076;262;1330;-53
2022/09/15 03:12:40;;;;;;;;;;;21.50;41.90;;;;;;452571;263;1273;-52
2022/09/15 03:14:42;;;;;;;;;;;21.40;41.90;;;;;;453088;262;1288;-51
2022/09/15 03:16:43;;;;;;;;;;;21.50;41.90;;;;;;453037;263;1066;-51
2022/09/15 03:18:44;;;;;;;;;;;21.50;41.90;;;;;;453089;263;1111;-52
2022/09/15 03:20:46;;;;;;;;;;;21.40;41.90;;;;;;452920;263;1224;-52
2022/09/15 03:22:47;;;;;;;;;;;21.40;41.90;;;;;;453121;262;1219;-51
2022/09/15 03:24:48;;;;;;;;;;;21.40;41.90;;;;;;452828;263;2181;-52
2022/09/15 03:26:50;;;;;;;;;;;21.50;41.80;;;;;;452872;263;1243;-51
2022/09/15 03:28:51;;;;;;;;;;;21.50;41.80;;;;;;453082;263;1261;-52
2022/09/15 03:30:52;;;;;;;;;;;21.40;41.80;;;;;;453058;263;1329;-52
2022/09/15 03:32:53;;;;;;;;;;;21.40;41.80;;;;;;453082;263;1278;-52
2022/09/15 03:34:55;;;;;;;;;;;21.50;41.80;;;;;;452679;263;1342;-52
2022/09/15 03:36:56;;;;;;;;;;;21.50;41.80;;;;;;452662;263;1273;-51
2022/09/15 03:38:58;;;;;;;;;;;21.40;41.80;;;;;;453033;263;1309;-51
2022/09/15 03:40:59;;;;;;;;;;;21.40;41.70;;;;;;453091;263;1230;-51
2022/09/15 03:43:00;;;;;;;;;;;21.40;41.90;;;;;;453077;263;2447;-51
2022/09/15 03:45:02;;;;;;;;;;;21.40;42.00;;;;;;452706;263;2220;-52
2022/09/15 03:47:03;;;;;;;;;;;21.40;42.10;;;;;;452678;263;2608;-52
2022/09/15 03:49:04;;;;;;;;;;;21.40;42.10;;;;;;453095;263;1264;-52
2022/09/15 03:51:06;;;;;;;;;;;21.40;42.20;;;;;;452693;263;1394;-52
2022/09/15 03:53:07;;;;;;;;;;;21.30;42.20;;;;;;452721;263;1243;-52
2022/09/15 03:55:08;;;;;;;;;;;21.30;42.30;;;;;;452808;263;1271;-51
2022/09/15 03:57:10;;;;;;;;;;;21.30;42.40;;;;;;453094;263;1372;-51
2022/09/15 03:59:11;;;;;;;;;;;21.30;42.40;;;;;;453160;262;1236;-51
2022/09/15 04:01:12;;;;;;;;;;;21.30;42.40;;;;;;452756;263;1346;-52
2022/09/15 04:03:13;;;;;;;;;;;21.30;42.50;;;;;;453092;263;1210;-51
2022/09/15 04:05:15;;;;;;;;;;;21.30;42.60;;;;;;452700;263;2213;-52
2022/09/15 04:07:16;;;;;;;;;;;21.30;42.60;;;;;;452701;263;1315;-52
2022/09/15 04:09:18;;;;;;;;;;;21.30;42.60;;;;;;453078;263;1345;-52
2022/09/15 04:11:19;;;;;;;;;;;21.30;42.70;;;;;;453079;262;1259;-51
2022/09/15 04:13:20;;;;;;;;;;;21.30;42.70;;;;;;452780;263;1233;-51
2022/09/15 04:15:22;;;;;;;;;;;21.30;42.80;;;;;;452905;263;1515;-52
2022/09/15 04:17:23;;;;;;;;;;;21.30;42.80;;;;;;452795;263;1372;-51
2022/09/15 04:19:24;;;;;;;;;;;21.30;42.80;;;;;;453168;262;1391;-52
2022/09/15 04:21:26;;;;;;;;;;;21.30;42.90;;;;;;452959;263;1296;-51
2022/09/15 04:23:27;;;;;;;;;;;21.30;42.90;;;;;;453068;263;1360;-52
2022/09/15 04:25:28;;;;;;;;;;;21.30;42.90;;;;;;453020;263;2217;-52
2022/09/15 04:27:33;;;;;;;;;;;21.30;42.90;;;;;;453100;263;1175;-52
2022/09/15 04:29:31;;;;;;;;;;;21.30;43.00;;;;;;452505;263;2683;-51
2022/09/15 04:31:32;;;;;;;;;;;21.30;43.00;;;;;;452986;263;1234;-52
2022/09/15 04:33:34;;;;;;;;;;;21.30;43.10;;;;;;453045;263;1332;-51
2022/09/15 04:35:35;;;;;;;;;;;21.30;43.10;;;;;;452620;263;1290;-52
2022/09/15 04:37:37;;;;;;;;;;;21.30;43.10;;;;;;452633;263;1267;-52
2022/09/15 04:39:38;;;;;;;;;;;21.30;43.20;;;;;;453026;263;1265;-51
2022/09/15 04:41:39;;;;;;;;;;;21.30;43.20;;;;;;452992;263;1292;-52
2022/09/15 04:43:40;;;;;;;;;;;21.30;43.20;;;;;;452524;263;1190;-52
2022/09/15 04:45:42;;;;;;;;;;;21.30;43.10;;;;;;452917;262;2178;-51
2022/09/15 04:47:43;;;;;;;;;;;21.30;43.20;;;;;;453017;263;1275;-52
2022/09/15 04:49:45;;;;;;;;;;;21.30;43.30;;;;;;452655;263;1320;-52
2022/09/15 04:51:46;;;;;;;;;;;21.30;43.40;;;;;;452989;262;1328;-51
2022/09/15 04:53:47;;;;;;;;;;;21.30;43.50;;;;;;452158;263;1246;-51
2022/09/15 04:55:49;;;;;;;;;;;21.30;43.40;;;;;;452918;263;1224;-52
2022/09/15 04:57:50;;;;;;;;;;;21.30;43.40;;;;;;452557;263;1314;-52
2022/09/15 04:59:51;;;;;;;;;;;21.30;43.50;;;;;;452905;263;1190;-52
2022/09/15 05:01:53;;;;;;;;;;;21.20;43.50;;;;;;452667;262;1199;-51
2022/09/15 05:03:54;;;;;;;;;;;21.30;43.50;;;;;;452957;263;1256;-51
2022/09/15 05:05:55;;;;;;;;;;;21.30;43.50;;;;;;452735;263;2185;-51
2022/09/15 05:07:59;;;;;;;;;;;21.30;43.60;;;;;;452682;263;1204;-52
2022/09/15 05:09:58;;;;;;;;;;;21.20;43.60;;;;;;452792;262;2444;-50
2022/09/15 05:11:59;;;;;;;;;;;21.30;43.70;;;;;;452580;263;1244;-51
2022/09/15 05:14:00;;;;;;;;;;;21.30;43.70;;;;;;452731;263;1240;-52
2022/09/15 05:16:02;;;;;;;;;;;21.30;43.70;;;;;;452952;262;1483;-51
2022/09/15 05:18:03;;;;;;;;;;;21.30;43.70;;;;;;452940;263;1221;-52
2022/09/15 05:20:04;;;;;;;;;;;21.20;43.70;;;;;;452995;262;1265;-51
2022/09/15 05:22:06;;;;;;;;;;;21.20;43.80;;;;;;452660;263;1228;-51
2022/09/15 05:24:07;;;;;;;;;;;21.20;43.80;;;;;;452973;263;1228;-52
2022/09/15 05:26:08;;;;;;;;;;;21.20;43.80;;;;;;452634;263;2118;-51
2022/09/15 05:28:10;;;;;;;;;;;21.20;43.80;;;;;;453051;263;1109;-51
2022/09/15 05:30:11;;;;;;;;;;;21.20;43.90;;;;;;452656;263;1135;-52
2022/09/15 05:32:12;;;;;;;;;;;21.30;43.90;;;;;;453046;263;1066;-51
2022/09/15 05:34:14;;;;;;;;;;;21.30;43.90;;;;;;452642;263;1209;-51
2022/09/15 05:36:16;;;;;;;;;;;21.30;43.90;;;;;;452614;263;1189;-51
2022/09/15 05:38:17;;;;;;;;;;;21.30;44.00;;;;;;452701;263;1245;-51
2022/09/15 05:40:20;;;;;;;;;;;21.30;44.00;;;;;;452925;263;1092;-51
2022/09/15 05:42:19;;;;;;;;;;;21.20;44.00;;;;;;452747;263;2316;-51
2022/09/15 05:44:21;;;;;;;;;;;21.30;44.10;;;;;;453039;263;2178;-51
2022/09/15 05:46:24;;;;;;;;;;;21.30;44.10;;;;;;452802;262;1261;-51
2022/09/15 05:48:23;;;;;;;;;;;21.30;43.90;;;;;;453086;262;2500;-51
2022/09/15 05:50:25;;;;;;;;;;;21.30;43.80;;;;;;452668;262;1105;-52
2022/09/15 05:52:26;;;;;;;;;;;21.30;43.80;;;;;;452830;263;1352;-51
2022/09/15 05:54:27;;;;;;;;;;;21.30;43.70;;;;;;452457;263;1138;-50
2022/09/15 05:56:28;;;;;;;;;;;21.40;43.70;;;;;;453034;263;1199;-51
2022/09/15 05:58:30;;;;;;;;;;;21.30;43.50;;;;;;452689;263;1123;-51
2022/09/15 06:00:31;;;;;;;;;;;21.30;43.50;;;;;;453055;263;1089;-51
2022/09/15 06:02:32;;;;;;;;;;;21.30;43.70;;;;;;452848;263;1200;-51
2022/09/15 06:04:34;;;;;;;;;;;21.30;43.60;;;;;;452756;263;2223;-51
2022/09/15 06:06:35;;;;;;;;;;;21.30;43.60;;;;;;452737;262;1227;-52
2022/09/15 06:08:36;;;;;;;;;;;21.30;43.60;;;;;;452764;263;1226;-51
2022/09/15 06:10:38;;;;;;;;;;;21.30;43.70;;;;;;452999;262;1130;-52
2022/09/15 06:12:39;;;;;;;;;;;21.30;43.70;;;;;;452776;263;1203;-52
2022/09/15 06:14:43;;;;;;;;;;;21.30;43.70;;;;;;452922;263;1323;-52
2022/09/15 06:16:42;;;;;;;;;;;21.30;43.70;;;;;;452428;263;1544;-52
2022/09/15 06:18:44;;;;;;;;;;;21.30;43.70;;;;;;452733;262;1231;-52
2022/09/15 06:20:45;;;;;;;;;;;21.30;43.80;;;;;;452743;263;1277;-52
2022/09/15 06:22:46;;;;;;;;;;;21.30;43.80;;;;;;452895;263;1377;-51
2022/09/15 06:24:48;;;;;;;;;;;21.30;43.70;;;;;;452638;263;2173;-51
2022/09/15 06:26:49;;;;;;;;;;;21.30;43.70;;;;;;452965;263;1278;-52
2022/09/15 06:28:50;;;;;;;;;;;21.30;43.70;;;;;;452636;262;1236;-52
2022/09/15 06:30:52;;;;;;;;;;;21.30;43.80;;;;;;452805;263;1244;-51
2022/09/15 06:32:53;;;;;;;;;;;21.30;43.90;;;;;;452818;263;1220;-52
2022/09/15 06:34:55;;;;;;;;;;;21.30;43.90;;;;;;452942;263;1364;-51
2022/09/15 06:36:56;;;;;;;;;;;21.30;43.90;;;;;;452621;263;1277;-50
2022/09/15 06:38:57;;;;;;;;;;;21.30;44.00;;;;;;452660;263;1550;-52
2022/09/15 06:40:59;;;;;;;;;;;21.30;43.80;;;;;;452748;263;1277;-52
2022/09/15 06:43:00;;;;;;;;;;;21.30;43.90;;;;;;452634;262;1213;-51
2022/09/15 06:45:03;;;;;;;;;;;21.30;44.00;;;;;;452737;263;2178;-52
2022/09/15 06:47:03;;;;;;;;;;;21.30;43.80;;;;;;452699;263;1962;-52
2022/09/15 06:49:04;;;;;;;;;;;21.30;43.90;;;;;;452380;263;1273;-51
2022/09/15 06:51:05;;;;;;;;;;;21.30;43.80;;;;;;452268;263;1271;-51
2022/09/15 06:53:07;;;;;;;;;;;21.40;43.60;;;;;;452491;263;1667;-51
2022/09/15 06:55:08;;;;;;;;;;;21.30;43.80;;;;;;452171;263;1596;-51
2022/09/15 06:57:10;;;;;;;;;;;21.30;43.70;;;;;;452294;263;1149;-51
2022/09/15 06:59:11;;;;;;;;;;;21.40;43.70;;;;;;452283;263;1192;-51
2022/09/15 07:01:12;;;;;;;;;;;21.40;43.60;;;;;;452466;263;1176;-50
2022/09/15 07:03:14;;;;;;;;;;;21.40;43.70;;;;;;452352;262;1296;-51
2022/09/15 07:05:15;;;;;;;;;;;21.40;43.50;;;;;;452486;263;2210;-51
2022/09/15 07:07:17;;;;;;;;;;;21.40;43.70;;;;;;452766;263;1198;-52
2022/09/15 07:09:18;;;;;;;;;;;21.40;43.70;;;;;;452444;263;1206;-52
2022/09/15 07:11:19;;;;;;;;;;;21.40;43.60;;;;;;452539;263;1336;-51
2022/09/15 07:13:21;;;;;;;;;;;21.40;43.70;;;;;;452585;263;1276;-52
2022/09/15 07:15:24;;;;;;;;;;;21.40;43.80;;;;;;452164;263;1263;-51
2022/09/15 07:17:25;;;;;;;;;;;21.40;43.90;;;;;;452520;263;1396;-52
2022/09/15 07:19:25;;;;;;;;;;;21.40;43.80;;;;;;452169;263;2522;-51
2022/09/15 07:21:26;;;;;;;;;;;21.40;43.70;;;;;;452539;263;1340;-52
2022/09/15 07:23:28;;;;;;;;;;;21.40;43.80;;;;;;452588;262;1093;-52
2022/09/15 07:25:29;;;;;;;;;;;21.40;43.70;;;;;;452340;263;2205;-51
2022/09/15 07:27:30;;;;;;;;;;;21.40;43.90;;;;;;452427;263;1291;-51
2022/09/15 07:29:32;;;;;;;;;;;21.40;43.80;;;;;;452403;263;1318;-52
2022/09/15 07:31:33;;;;;;;;;;;21.40;43.80;;;;;;452434;263;1193;-52
2022/09/15 07:33:34;;;;;;;;;;;21.30;43.80;;;;;;452634;263;1172;-51
2022/09/15 07:35:36;;;;;;;;;;;21.30;43.90;;;;;;452426;263;1325;-51
2022/09/15 07:37:37;;;;;;;;;;;21.40;43.90;;;;;;452435;262;1240;-52
2022/09/15 07:39:39;;;;;;;;;;;21.30;43.80;;;;;;452502;263;1261;-51
2022/09/15 07:41:40;;;;;;;;;;;21.30;43.70;;;;;;452443;263;1243;-51
2022/09/15 07:43:41;;;;;;;;;;;21.30;43.80;;;;;;452434;262;1288;-51
2022/09/15 07:45:43;;;;;;;;;;;21.30;43.90;;;;;;452467;263;2216;-52
2022/09/15 07:47:44;;;;;;;;;;;21.40;43.90;;;;;;452266;263;1094;-51
2022/09/15 07:49:46;;;;;;;;;;;21.40;43.90;;;;;;452494;263;1113;-51
2022/09/15 07:51:47;;;;;;;;;;;21.40;43.90;;;;;;452395;262;1396;-51
2022/09/15 07:53:48;;;;;;;;;;;21.40;43.90;;;;;;452488;263;1235;-52
2022/09/15 07:55:49;;;;;;;;;;;21.40;43.90;;;;;;452387;263;1966;-51
2022/09/15 07:57:51;;;;;;;;;;;21.40;44.00;;;;;;452368;263;1315;-51
2022/09/15 07:59:52;;;;;;;;;;;21.40;44.00;;;;;;452717;263;1354;-52
2022/09/15 08:01:53;;;;;;;;;;;21.40;44.00;;;;;;452423;263;1692;-51
2022/09/15 08:03:55;;;;;;;;;;;21.40;43.80;;;;;;452752;263;1231;-52
2022/09/15 08:05:56;;;;;;;;;;;21.40;43.80;;;;;;452563;263;2173;-52
2022/09/15 08:07:57;;;;;;;;;;;21.40;43.70;;;;;;452461;262;1334;-52
2022/09/15 08:09:59;;;;;;;;;;;21.40;43.90;;;;;;452708;263;1250;-52
2022/09/15 08:12:00;;;;;;;;;;;21.40;43.90;;;;;;452646;263;1236;-51
2022/09/15 08:14:02;;;;;;;;;;;21.30;43.90;;;;;;452321;263;1301;-51
2022/09/15 08:16:03;;;;;;;;;;;21.40;44.10;;;;;;452614;263;1166;-51
2022/09/15 08:18:05;;;;;;;;;;;21.30;44.10;;;;;;452476;263;1511;-52
2022/09/15 08:20:06;;;;;;;;;;;21.40;44.10;;;;;;452861;263;1234;-52
2022/09/15 08:22:07;;;;;;;;;;;21.40;44.00;;;;;;452345;263;1262;-51
2022/09/15 08:24:08;;;;;;;;;;;21.30;44.10;;;;;;452145;263;1230;-52
2022/09/15 08:26:10;;;;;;;;;;;21.30;44.20;;;;;;452389;263;2213;-51
2022/09/15 08:28:11;;;;;;;;;;;21.30;44.30;;;;;;452301;263;1328;-51
2022/09/15 08:30:12;;;;;;;;;;;21.40;44.30;;;;;;452497;263;1281;-52
2022/09/15 08:32:14;;;;;;;;;;;21.30;44.10;;;;;;452308;263;1232;-52
2022/09/15 08:34:15;;;;;;;;;;;21.40;44.10;;;;;;452275;263;1283;-51
2022/09/15 08:36:16;;;;;;;;;;;21.40;44.10;;;;;;452329;263;1251;-52
2022/09/15 08:38:18;;;;;;;;;;;21.40;44.20;;;;;;452293;263;1566;-52
2022/09/15 08:40:19;;;;;;;;;;;21.40;44.20;;;;;;452775;262;1221;-51
2022/09/15 08:42:22;;;;;;;;;;;21.40;44.10;;;;;;452267;263;1263;-51
2022/09/15 08:44:22;;;;;;;;;;;21.40;44.10;;;;;;452207;263;2070;-51
2022/09/15 08:46:23;;;;;;;;;;;21.40;44.20;;;;;;452323;263;2201;-51
2022/09/15 08:48:24;;;;;;;;;;;21.40;44.10;;;;;;452413;262;1257;-52
2022/09/15 08:50:27;;;;;;;;;;;21.40;44.20;;;;;;452282;263;1326;-51
2022/09/15 08:52:28;;;;;;;;;;;21.30;44.30;;;;;;452520;263;1303;-52
2022/09/15 08:54:29;;;;;;;;;;;21.30;44.30;;;;;;452709;263;1287;-52
2022/09/15 08:56:30;;;;;;;;;;;21.40;44.10;;;;;;452369;263;1247;-52
2022/09/15 08:58:32;;;;;;;;;;;21.30;44.30;;;;;;452371;262;1306;-51
2022/09/15 09:00:33;;;;;;;;;;;21.40;44.20;;;;;;452349;262;2049;-52
2022/09/15 09:02:35;;;;;;;;;;;21.30;44.20;;;;;;452400;262;1201;-51
2022/09/15 09:04:36;;;;;;;;;;;21.40;44.30;;;;;;452401;263;1229;-52
2022/09/15 09:06:37;;;;;;;;;;;21.40;44.20;;;;;;452436;263;2201;-51
2022/09/15 09:08:38;;;;;;;;;;;21.40;44.10;;;;;;452325;263;1366;-52
2022/09/15 09:10:40;;;;;;;;;;;21.40;44.10;;;;;;452683;263;1239;-52
2022/09/15 09:12:41;;;;;;;;;;;21.40;44.10;;;;;;452242;262;1268;-51
2022/09/15 09:14:42;;;;;;;;;;;21.40;44.20;;;;;;452297;262;1160;-52
2022/09/15 09:16:44;;;;;;;;;;;21.40;44.30;;;;;;452293;263;1372;-51
2022/09/15 09:18:45;;;;;;;;;;;21.40;44.20;;;;;;452417;263;1567;-52
2022/09/15 09:20:47;;;;;;;;;;;21.40;44.20;;;;;;452567;263;1377;-52
2022/09/15 09:22:48;;;;;;;;;;;21.40;44.30;;;;;;452245;263;1240;-51
2022/09/15 09:24:49;;;;;;;;;;;21.40;44.20;;;;;;452184;262;1242;-51
2022/09/15 09:26:52;;;;;;;;;;;21.40;44.30;;;;;;452351;263;2201;-51
2022/09/15 09:28:52;;;;;;;;;;;21.40;44.10;;;;;;452537;262;2401;-52
2022/09/15 09:30:53;;;;;;;;;;;21.40;44.30;;;;;;452462;263;1716;-52
2022/09/15 09:32:55;;;;;;;;;;;21.40;44.20;;;;;;452616;262;1266;-52
2022/09/15 09:34:56;;;;;;;;;;;21.40;44.20;;;;;;452384;263;1410;-52
2022/09/15 09:36:57;;;;;;;;;;;21.40;44.30;;;;;;452370;263;1460;-52
2022/09/15 09:38:59;;;;;;;;;;;21.40;44.20;;;;;;452598;262;1522;-52
2022/09/15 09:41:00;;;;;;;;;;;21.40;44.30;;;;;;452908;262;1236;-51
2022/09/15 09:43:01;;;;;;;;;;;21.40;44.10;;;;;;452102;263;1239;-51
2022/09/15 09:45:03;;;;;;;;;;;21.40;44.10;;;;;;452380;263;1287;-52
2022/09/15 09:47:04;;;;;;;;;;;21.40;44.10;;;;;;452677;263;2225;-52
2022/09/15 09:49:05;;;;;;;;;;;21.40;44.30;;;;;;452372;263;1369;-51
2022/09/15 09:51:06;;;;;;;;;;;21.40;44.40;;;;;;452304;263;1387;-52
2022/09/15 09:53:08;;;;;;;;;;;21.40;44.30;;;;;;452417;263;1375;-51
2022/09/15 09:55:09;;;;;;;;;;;21.40;44.20;;;;;;452419;263;1330;-51
2022/09/15 09:57:11;;;;;;;;;;;21.40;44.20;;;;;;452443;262;1279;-51
2022/09/15 09:59:12;;;;;;;;;;;21.40;44.20;;;;;;452391;263;1270;-51
2022/09/15 10:01:13;;;;;;;;;;;21.50;44.30;;;;;;452334;263;1206;-52
2022/09/15 10:03:14;;;;;;;;;;;21.40;44.30;;;;;;452476;263;1331;-52
2022/09/15 10:05:16;;;;;;;;;;;21.40;44.40;;;;;;452754;263;1273;-51
2022/09/15 10:07:17;;;;;;;;;;;21.30;44.50;;;;;;452391;263;2225;-52
2022/09/15 10:09:18;;;;;;;;;;;21.40;44.50;;;;;;452388;263;1237;-52
2022/09/15 10:11:20;;;;;;;;;;;21.40;44.70;;;;;;452603;263;1255;-52
2022/09/15 10:13:21;;;;;;;;;;;21.40;44.40;;;;;;452719;263;2092;-52
2022/09/15 10:15:22;;;;;;;;;;;21.40;44.50;;;;;;452655;263;1348;-51
2022/09/15 10:17:24;;;;;;;;;;;21.40;44.30;;;;;;452482;263;1276;-51
2022/09/15 10:19:25;;;;;;;;;;;21.40;44.50;;;;;;452832;263;1327;-51
2022/09/15 10:21:26;;;;;;;;;;;21.40;44.60;;;;;;452433;263;1325;-51
2022/09/15 10:23:28;;;;;;;;;;;21.40;44.50;;;;;;452856;263;1237;-51
2022/09/15 10:25:29;;;;;;;;;;;21.40;44.40;;;;;;452470;262;1229;-52
2022/09/15 10:27:30;;;;;;;;;;;21.40;44.40;;;;;;452643;263;2186;-51
2022/09/15 10:29:32;;;;;;;;;;;21.40;44.50;;;;;;452552;263;1305;-52
2022/09/15 10:31:33;;;;;;;;;;;21.40;44.60;;;;;;452472;263;1230;-52
2022/09/15 10:33:34;;;;;;;;;;;21.40;44.40;;;;;;452702;263;1266;-52
2022/09/15 10:35:36;;;;;;;;;;;21.40;44.50;;;;;;452867;263;1270;-51
2022/09/15 10:37:37;;;;;;;;;;;21.50;44.40;;;;;;452648;263;1213;-51
2022/09/15 10:39:38;;;;;;;;;;;21.40;44.30;;;;;;452813;262;1133;-51
2022/09/15 10:41:40;;;;;;;;;;;21.40;44.50;;;;;;452653;262;1180;-51
2022/09/15 10:43:41;;;;;;;;;;;21.40;44.50;;;;;;452511;263;1250;-51
2022/09/15 10:45:42;;;;;;;;;;;21.40;44.40;;;;;;452517;263;1331;-51
2022/09/15 10:47:43;;;;;;;;;;;21.40;44.30;;;;;;452448;263;2138;-52
2022/09/15 10:49:45;;;;;;;;;;;21.40;44.40;;;;;;452497;263;1194;-52
2022/09/15 10:51:46;;;;;;;;;;;21.40;44.40;;;;;;452824;263;1226;-51
2022/09/15 10:53:47;;;;;;;;;;;21.40;44.50;;;;;;452676;263;1256;-52
2022/09/15 10:55:49;;;;;;;;;;;21.40;44.50;;;;;;452831;263;1272;-51
2022/09/15 10:57:50;;;;;;;;;;;21.40;44.30;;;;;;452529;263;1247;-52
2022/09/15 10:59:51;;;;;;;;;;;21.40;44.40;;;;;;452263;263;1177;-51
2022/09/15 11:01:53;;;;;;;;;;;21.40;44.40;;;;;;452407;263;1225;-52
2022/09/15 11:03:54;;;;;;;;;;;21.40;44.40;;;;;;452517;263;1257;-52
2022/09/15 11:05:55;;;;;;;;;;;21.40;44.30;;;;;;452260;263;1199;-51
2022/09/15 11:07:57;;;;;;;;;;;21.40;44.40;;;;;;452486;262;2205;-51
2022/09/15 11:09:58;;;;;;;;;;;21.50;44.60;;;;;;452292;263;1377;-50
2022/09/15 11:11:59;;;;;;;;;;;21.50;44.40;;;;;;452364;262;1440;-52
2022/09/15 11:14:03;;;;;;;;;;;21.40;44.40;;;;;;452349;263;1246;-52
2022/09/15 11:16:02;;;;;;;;;;;21.50;44.40;;;;;;452096;263;2259;-52
2022/09/15 11:18:04;;;;;;;;;;;21.40;44.40;;;;;;452366;263;1435;-51
2022/09/15 11:20:05;;;;;;;;;;;21.40;44.50;;;;;;452443;263;1242;-51
2022/09/15 11:22:07;;;;;;;;;;;21.40;44.40;;;;;;452232;263;1255;-51
2022/09/15 11:24:08;;;;;;;;;;;21.40;44.40;;;;;;452445;263;1264;-51
2022/09/15 11:26:09;;;;;;;;;;;21.40;44.40;;;;;;452155;263;1482;-51
2022/09/15 11:28:10;;;;;;;;;;;21.40;44.40;;;;;;452427;263;2205;-51
2022/09/15 11:30:12;;;;;;;;;;;21.40;44.50;;;;;;452230;263;1219;-51
2022/09/15 11:32:19;;;;;;;;;;;21.40;43.50;;;;;;502690;234;1236;-52
2022/09/15 11:34:20;;;;;;;;;;;21.40;44.60;;;;;;491871;241;1514;-51
2022/09/15 11:36:21;;;;;;;;;;;21.50;44.60;;;;;;491920;240;1278;-51
2022/09/15 11:38:23;;;;;;;;;;;21.50;44.40;;;;;;491850;240;1431;-51
2022/09/15 11:40:24;;;;;;;;;;;21.50;44.50;;;;;;491918;240;1357;-51
2022/09/15 11:42:26;;;;;;;;;;;21.40;44.50;;;;;;491436;240;1207;-51
2022/09/15 11:44:27;;;;;;;;;;;21.40;44.40;;;;;;491583;240;1272;-51
2022/09/15 11:46:29;;;;;;;;;;;21.40;44.60;;;;;;491728;240;1184;-51
2022/09/15 11:48:30;;;;;;;;;;;21.40;44.60;;;;;;491860;240;1291;-51
2022/09/15 11:50:32;;;;;;;;;;;21.40;44.50;;;;;;491604;240;2217;-51
2022/09/15 11:52:33;;;;;;;;;;;21.40;44.70;;;;;;491589;240;1215;-51
2022/09/15 11:54:35;;;;;;;;;;;21.40;44.70;;;;;;491548;240;1294;-51
2022/09/15 11:56:35;;;;;;;;;;;21.40;44.70;;;;;;491585;240;1232;-51